Time;durP1;ratioP1;P1;durP2;ratioP2;P2;SDS_P1;SDS_P2;PMS_P1;PMS_P2;Temp;Humidity;BMP_temperature;BMP_pressure;BME280_temperature;BME280_humidity;BME280_pressure;Samples;Min_cycle;Max_cycle;Signal;HPM_P1;HPM_P2
2021/03/30 04:00:42;;;;;;;6.67;2.20;;;2.60;96.30;;;;;;5828935;23;20497;-79
2021/03/30 04:03:39;;;;;;;7.03;2.50;;;2.50;96.30;;;;;;4970596;28;20429;-78
2021/03/30 04:06:15;;;;;;;4.00;2.07;;;2.50;96.30;;;;;;4950870;29;20262;-80
2021/03/30 04:08:56;;;;;;;6.53;2.97;;;2.60;96.30;;;;;;4953567;29;20414;-78
2021/03/30 04:11:22;;;;;;;3.63;1.70;;;2.60;96.30;;;;;;4953963;28;20478;-78
2021/03/30 04:13:50;;;;;;;5.73;2.23;;;2.50;96.30;;;;;;4996249;23;20512;-79
2021/03/30 04:16:16;;;;;;;9.70;4.13;;;2.50;96.30;;;;;;4975670;28;20499;-79
2021/03/30 04:18:44;;;;;;;6.20;3.00;;;2.50;96.30;;;;;;4988289;28;20438;-79
2021/03/30 04:21:19;;;;;;;6.83;4.23;;;2.60;96.30;;;;;;4994426;28;20444;-79
2021/03/30 04:23:46;;;;;;;6.30;4.17;;;2.50;96.30;;;;;;5011384;28;20432;-79
2021/03/30 04:26:12;;;;;;;16.33;13.10;;;2.50;96.30;;;;;;5008390;28;20448;-79
2021/03/30 04:28:39;;;;;;;29.77;21.57;;;2.40;96.30;;;;;;4994821;28;20413;-79
2021/03/30 04:31:05;;;;;;;18.67;11.40;;;2.40;96.30;;;;;;4994849;28;20440;-79
2021/03/30 04:33:30;;;;;;;11.20;8.60;;;2.40;96.30;;;;;;4994663;28;20432;-79
2021/03/30 04:35:56;;;;;;;9.23;5.20;;;2.40;96.30;;;;;;4980689;28;20484;-79
2021/03/30 04:38:22;;;;;;;4.10;3.10;;;2.30;96.30;;;;;;4994558;28;20236;-79
2021/03/30 04:40:52;;;;;;;7.10;4.17;;;2.40;96.30;;;;;;5010362;28;20205;-79
2021/03/30 04:43:19;;;;;;;4.43;3.10;;;2.40;96.30;;;;;;4994653;28;20208;-79
2021/03/30 04:45:44;;;;;;;7.70;3.90;;;2.30;96.30;;;;;;4993945;28;20823;-79
2021/03/30 04:48:10;;;;;;;5.90;2.70;;;2.30;96.30;;;;;;4990549;28;20433;-79
2021/03/30 04:50:35;;;;;;;5.77;2.67;;;2.30;96.30;;;;;;4981929;28;20248;-79
2021/03/30 04:53:01;;;;;;;5.00;2.70;;;2.40;96.30;;;;;;4996618;28;20177;-79
2021/03/30 04:55:26;;;;;;;6.97;2.97;;;2.40;96.30;;;;;;4997382;28;20182;-79
2021/03/30 04:57:52;;;;;;;15.03;4.20;;;2.40;96.30;;;;;;4996347;28;20198;-79
2021/03/30 05:00:18;;;;;;;6.57;3.20;;;2.40;96.30;;;;;;4997087;28;20625;-79
2021/03/30 05:02:44;;;;;;;7.07;3.77;;;2.40;96.30;;;;;;5012444;28;20193;-79
2021/03/30 05:05:10;;;;;;;11.60;6.70;;;2.50;96.30;;;;;;5012204;28;20436;-79
2021/03/30 05:07:36;;;;;;;14.97;10.80;;;2.50;96.30;;;;;;5013376;28;20641;-79
2021/03/30 05:10:03;;;;;;;9.97;8.97;;;2.50;96.30;;;;;;4999534;28;20428;-79
2021/03/30 05:12:28;;;;;;;7.70;5.30;;;2.50;96.30;;;;;;4985633;28;20179;-80
2021/03/30 05:14:54;;;;;;;5.00;3.53;;;2.60;96.30;;;;;;4978646;28;20548;-80
2021/03/30 05:17:19;;;;;;;5.23;3.20;;;2.70;96.30;;;;;;4980496;28;20182;-80
2021/03/30 05:19:45;;;;;;;8.90;3.27;;;2.80;96.30;;;;;;4980806;28;20286;-80
2021/03/30 05:22:10;;;;;;;4.23;3.00;;;2.80;96.30;;;;;;4979014;28;20182;-80
2021/03/30 05:24:36;;;;;;;6.17;2.73;;;2.90;96.30;;;;;;4978789;28;20198;-77
2021/03/30 05:27:01;;;;;;;9.00;2.80;;;3.10;96.30;;;;;;4976304;28;20685;-79
2021/03/30 05:29:27;;;;;;;4.70;3.10;;;3.30;96.30;;;;;;4975349;28;20245;-78
2021/03/30 05:31:52;;;;;;;5.03;3.03;;;3.40;96.30;;;;;;4975113;28;20186;-78
2021/03/30 05:34:18;;;;;;;4.97;2.50;;;3.50;96.30;;;;;;4975278;28;20202;-78
2021/03/30 05:36:43;;;;;;;5.30;2.37;;;3.60;96.30;;;;;;4977651;28;20281;-79
2021/03/30 05:39:09;;;;;;;14.37;4.83;;;3.70;96.30;;;;;;4977871;28;20178;-79
2021/03/30 05:41:38;;;;;;;5.70;2.90;;;3.70;96.30;;;;;;4993480;28;20264;-78
2021/03/30 05:44:04;;;;;;;3.60;2.53;;;3.90;96.30;;;;;;4976519;28;20333;-78
2021/03/30 05:46:31;;;;;;;3.97;2.40;;;4.10;96.30;;;;;;4991064;28;20551;-79
2021/03/30 05:48:56;;;;;;;6.20;2.47;;;4.40;96.30;;;;;;4976636;28;20185;-78
2021/03/30 05:51:24;;;;;;;5.83;3.10;;;4.70;96.30;;;;;;4976518;28;20426;-78
2021/03/30 05:53:58;;;;;;;3.50;2.93;;;4.90;96.30;;;;;;4976830;28;20190;-79
2021/03/30 05:56:25;;;;;;;6.23;2.93;;;5.10;96.30;;;;;;4976388;28;20477;-78
2021/03/30 05:58:52;;;;;;;7.63;4.03;;;5.20;96.30;;;;;;4974664;28;20783;-78
2021/03/30 06:01:19;;;;;;;11.40;6.60;;;5.40;96.30;;;;;;4976123;28;20445;-79
2021/03/30 06:03:46;;;;;;;15.90;9.37;;;5.50;96.30;;;;;;4975123;28;20433;-78
2021/03/30 06:06:12;;;;;;;12.07;7.73;;;5.50;96.30;;;;;;4975065;28;20960;-79
2021/03/30 06:08:38;;;;;;;7.33;5.37;;;5.90;96.30;;;;;;4974145;28;20428;-78
2021/03/30 06:11:06;;;;;;;6.97;4.37;;;6.10;96.30;;;;;;4975568;28;20202;-79
2021/03/30 06:13:56;;;;;;;5.60;3.57;;;6.40;96.30;;;;;;4975637;28;20547;-79
2021/03/30 06:16:32;;;;;;;8.07;3.43;;;6.80;96.30;;;;;;4969966;28;20409;-79
2021/03/30 06:19:11;;;;;;;4.20;2.57;;;7.00;96.30;;;;;;4969438;28;20832;-78
2021/03/30 06:22:00;;;;;;;4.60;2.73;;;7.40;96.30;;;;;;4972477;28;20401;-79
2021/03/30 06:24:37;;;;;;;7.13;2.70;;;7.50;96.30;;;;;;4972442;28;20450;-79
2021/03/30 06:27:05;;;;;;;4.77;2.97;;;7.70;96.30;;;;;;4973838;28;20465;-78
2021/03/30 06:29:38;;;;;;;8.90;2.90;;;8.20;94.80;;;;;;4972688;28;20489;-79
2021/03/30 06:32:14;;;;;;;7.13;3.30;;;8.70;92.70;;;;;;4973534;28;20432;-79
2021/03/30 06:34:45;;;;;;;5.63;3.20;;;9.10;91.80;;;;;;4969950;28;20949;-80
2021/03/30 06:37:25;;;;;;;10.63;3.27;;;9.90;88.60;;;;;;4975275;28;20418;-80
2021/03/30 06:39:51;;;;;;;9.93;3.50;;;10.60;86.90;;;;;;4968079;28;20779;-80
2021/03/30 06:42:29;;;;;;;4.30;3.20;;;11.00;86.30;;;;;;4975647;28;20422;-80
2021/03/30 06:44:54;;;;;;;6.80;3.00;;;11.70;83.10;;;;;;4975601;28;20202;-80
2021/03/30 06:47:23;;;;;;;6.23;3.40;;;12.40;80.40;;;;;;4974951;28;20899;-80
2021/03/30 06:49:55;;;;;;;8.17;3.50;;;12.70;79.20;;;;;;4974008;28;20186;-79
2021/03/30 06:52:25;;;;;;;6.13;3.50;;;13.30;77.50;;;;;;4956304;28;20421;-79
2021/03/30 06:54:59;;;;;;;8.90;4.07;;;13.10;78.10;;;;;;4973833;28;20437;-76
2021/03/30 06:57:40;;;;;;;6.10;2.80;;;13.50;77.50;;;;;;4973010;28;20429;-76
2021/03/30 07:00:08;;;;;;;5.37;2.87;;;14.10;76.40;;;;;;4971895;28;20469;-76
2021/03/30 07:02:35;;;;;;;5.50;3.00;;;14.90;74.10;;;;;;4972821;28;20980;-78
2021/03/30 07:05:01;;;;;;;3.27;2.57;;;14.90;74.20;;;;;;4971956;28;21007;-78
2021/03/30 07:07:28;;;;;;;6.87;2.33;;;15.00;74.20;;;;;;4970883;28;20457;-78
2021/03/30 07:09:55;;;;;;;5.87;3.00;;;15.60;72.30;;;;;;4973398;28;20238;-78
2021/03/30 07:12:25;;;;;;;5.13;2.90;;;16.00;71.00;;;;;;4973822;28;20413;-78
2021/03/30 07:14:51;;;;;;;10.50;3.63;;;15.60;71.60;;;;;;4985529;28;20452;-79
2021/03/30 07:17:27;;;;;;;3.93;2.47;;;15.70;71.70;;;;;;4990844;28;20484;-79
2021/03/30 07:19:55;;;;;;;5.97;3.30;;;15.70;72.00;;;;;;4980056;28;20186;-79
2021/03/30 07:22:23;;;;;;;9.93;5.30;;;16.60;70.80;;;;;;4977637;28;20430;-80
2021/03/30 07:25:04;;;;;;;7.10;4.63;;;17.20;68.30;;;;;;4977514;28;20453;-79
2021/03/30 07:27:35;;;;;;;5.63;3.53;;;16.80;68.80;;;;;;4977604;28;20560;-80
2021/03/30 07:30:02;;;;;;;7.27;3.17;;;17.00;68.70;;;;;;4979340;28;20429;-80
2021/03/30 07:33:00;;;;;;;3.70;2.83;;;17.40;67.50;;;;;;4978539;28;20504;-80
2021/03/30 07:35:28;;;;;;;6.40;2.97;;;17.80;67.00;;;;;;4978442;28;20417;-80
2021/03/30 07:38:13;;;;;;;4.83;3.07;;;17.30;67.30;;;;;;4977445;28;20493;-80
2021/03/30 07:40:41;;;;;;;4.80;2.73;;;17.30;67.50;;;;;;4993807;28;20414;-81
2021/03/30 07:43:08;;;;;;;5.73;4.07;;;17.30;68.00;;;;;;4994058;28;20440;-80
2021/03/30 07:45:38;;;;;;;5.90;2.90;;;18.00;67.10;;;;;;4980527;28;20440;-79
2021/03/30 07:48:04;;;;;;;13.30;6.50;;;18.40;66.80;;;;;;4974703;28;20433;-80
2021/03/30 07:50:46;;;;;;;7.10;5.53;;;18.60;65.80;;;;;;4992051;28;20435;-80
2021/03/30 07:53:41;;;;;;;8.93;3.10;;;19.60;64.20;;;;;;4975261;28;20417;-80
2021/03/30 07:56:08;;;;;;;4.47;2.93;;;19.90;62.50;;;;;;4969371;28;20441;-80
2021/03/30 07:58:44;;;;;;;14.73;3.27;;;20.00;62.20;;;;;;4974049;28;20590;-79
2021/03/30 08:01:11;;;;;;;10.33;3.47;;;19.50;63.40;;;;;;4975806;28;20429;-80
2021/03/30 08:03:39;;;;;;;7.07;3.23;;;19.70;63.40;;;;;;4976010;28;20438;-79
2021/03/30 08:06:18;;;;;;;10.70;3.90;;;19.90;62.80;;;;;;4975973;28;20999;-79
2021/03/30 08:08:53;;;;;;;8.63;2.97;;;20.50;61.60;;;;;;4974520;28;20526;-79
2021/03/30 08:11:38;;;;;;;10.07;4.37;;;19.40;63.50;;;;;;4975234;28;20449;-79
2021/03/30 08:14:05;;;;;;;7.90;4.00;;;20.00;63.90;;;;;;4976274;28;20449;-79
2021/03/30 08:16:34;;;;;;;5.93;3.43;;;20.90;60.90;;;;;;4973954;28;20933;-79
2021/03/30 08:19:04;;;;;;;8.20;3.00;;;21.30;60.00;;;;;;4974027;28;20421;-79
2021/03/30 08:21:58;;;;;;;6.33;3.73;;;21.20;59.40;;;;;;4975034;28;20436;-80
2021/03/30 08:24:45;;;;;;;6.70;4.10;;;22.10;56.90;;;;;;4975780;28;20817;-80
2021/03/30 08:27:34;;;;;;;10.30;4.00;;;22.50;59.00;;;;;;4976763;28;21122;-79
2021/03/30 08:30:05;;;;;;;4.40;3.87;;;22.30;54.30;;;;;;4977017;28;20425;-80
2021/03/30 08:32:33;;;;;;;6.03;3.97;;;22.00;52.60;;;;;;4976757;28;20511;-77
2021/03/30 08:35:08;;;;;;;12.00;4.57;;;21.50;53.60;;;;;;4976073;28;20441;-77
2021/03/30 08:37:41;;;;;;;7.80;4.50;;;21.70;55.00;;;;;;4981587;28;20428;-77
2021/03/30 08:40:34;;;;;;;7.50;4.20;;;22.40;54.30;;;;;;4996451;28;20995;-77
2021/03/30 08:43:18;;;;;;;10.23;4.67;;;22.80;53.70;;;;;;4957205;28;20782;-77
2021/03/30 08:46:02;;;;;;;6.50;4.50;;;22.70;52.30;;;;;;4973590;28;20460;-78
2021/03/30 08:48:32;;;;;;;10.63;4.83;;;22.10;53.10;;;;;;4976497;28;20424;-78
2021/03/30 08:50:59;;;;;;;7.53;4.80;;;21.90;52.30;;;;;;4975073;28;20426;-78
2021/03/30 08:53:29;;;;;;;8.90;4.13;;;21.90;51.50;;;;;;4977163;28;20917;-78
2021/03/30 08:55:54;;;;;;;23.30;5.33;;;22.50;53.60;;;;;;4977674;28;20585;-79
2021/03/30 08:58:25;;;;;;;8.53;4.87;;;22.60;51.80;;;;;;4977411;28;20911;-79
2021/03/30 09:00:52;;;;;;;5.17;4.00;;;23.60;49.60;;;;;;4976317;28;20177;-79
2021/03/30 09:03:24;;;;;;;7.63;4.60;;;23.60;52.20;;;;;;4978113;28;20913;-81
2021/03/30 09:05:50;;;;;;;6.47;4.60;;;23.80;52.80;;;;;;4974499;28;20824;-78
2021/03/30 09:08:37;;;;;;;11.67;4.53;;;24.10;52.40;;;;;;4975641;28;20421;-78
2021/03/30 09:11:20;;;;;;;7.57;3.50;;;24.20;54.10;;;;;;4973172;28;20178;-78
2021/03/30 09:14:07;;;;;;;7.67;4.23;;;24.70;53.00;;;;;;4975876;28;20464;-78
2021/03/30 09:16:34;;;;;;;9.73;5.07;;;25.20;51.30;;;;;;4976275;28;20853;-78
2021/03/30 09:19:13;;;;;;;9.23;4.63;;;25.20;48.70;;;;;;4976411;28;20413;-78
2021/03/30 09:21:40;;;;;;;8.83;4.67;;;25.20;52.30;;;;;;4975773;28;20429;-78
2021/03/30 09:24:11;;;;;;;6.47;4.83;;;25.90;50.90;;;;;;4975598;28;20441;-78
2021/03/30 09:26:40;;;;;;;8.37;4.53;;;25.80;47.70;;;;;;4975591;28;20961;-78
2021/03/30 09:29:07;;;;;;;8.53;5.53;;;25.40;50.30;;;;;;4976092;28;20499;-78
2021/03/30 09:31:34;;;;;;;8.73;5.10;;;25.20;51.40;;;;;;4976179;28;20425;-78
2021/03/30 09:34:00;;;;;;;7.80;5.37;;;25.60;50.90;;;;;;4977706;28;20433;-79
2021/03/30 09:36:26;;;;;;;15.27;4.63;;;25.70;46.80;;;;;;4978021;28;20425;-79
2021/03/30 09:38:54;;;;;;;5.90;4.50;;;25.70;45.60;;;;;;4977146;28;20830;-78
2021/03/30 09:41:40;;;;;;;8.57;4.03;;;26.20;48.00;;;;;;4975047;28;20634;-80
2021/03/30 09:44:07;;;;;;;9.87;4.90;;;26.40;49.30;;;;;;4968843;28;20808;-80
2021/03/30 09:46:33;;;;;;;7.47;4.40;;;26.80;44.50;;;;;;4980179;28;20507;-80
2021/03/30 09:48:59;;;;;;;11.93;4.77;;;26.40;46.70;;;;;;4979969;28;20553;-79
2021/03/30 09:51:25;;;;;;;6.93;5.17;;;26.30;43.80;;;;;;4978827;28;20918;-79
2021/03/30 09:53:51;;;;;;;9.70;4.60;;;25.50;46.60;;;;;;4980030;28;20198;-79
2021/03/30 09:56:28;;;;;;;11.97;4.80;;;25.70;49.80;;;;;;4971181;28;20437;-78
2021/03/30 09:58:56;;;;;;;8.90;5.00;;;26.10;46.80;;;;;;4981091;28;20189;-79
2021/03/30 10:01:24;;;;;;;9.40;5.30;;;25.80;47.00;;;;;;4963646;28;20897;-79
2021/03/30 10:03:50;;;;;;;7.10;5.20;;;25.30;49.80;;;;;;4974985;28;20502;-79
2021/03/30 10:06:20;;;;;;;7.50;5.00;;;25.40;47.30;;;;;;4974090;28;20547;-81
2021/03/30 10:08:49;;;;;;;10.07;5.07;;;25.80;50.30;;;;;;4977634;28;20436;-79
2021/03/30 10:11:27;;;;;;;8.83;4.97;;;25.60;46.60;;;;;;4978917;28;20417;-79
2021/03/30 10:13:52;;;;;;;11.67;5.00;;;25.40;49.50;;;;;;4979355;28;20472;-79
2021/03/30 10:16:18;;;;;;;5.80;4.47;;;25.70;51.20;;;;;;4997658;28;20421;-79
2021/03/30 10:18:44;;;;;;;8.03;4.07;;;25.80;47.60;;;;;;4984600;28;20221;-79
2021/03/30 10:21:16;;;;;;;8.87;4.30;;;25.50;49.00;;;;;;4983924;28;20755;-79
2021/03/30 10:23:49;;;;;;;8.67;4.60;;;25.40;47.40;;;;;;4977246;28;20379;-79
2021/03/30 10:26:18;;;;;;;13.70;5.20;;;25.00;43.20;;;;;;4975312;28;20540;-79
2021/03/30 10:28:52;;;;;;;7.70;4.60;;;24.70;49.50;;;;;;4975230;28;20428;-79
2021/03/30 10:31:36;;;;;;;11.27;5.80;;;24.60;50.00;;;;;;4977440;28;20402;-79
2021/03/30 10:34:02;;;;;;;5.90;4.33;;;24.70;50.10;;;;;;4975787;28;20533;-79
2021/03/30 10:36:28;;;;;;;9.43;5.30;;;24.40;49.00;;;;;;4975692;28;20409;-79
2021/03/30 10:39:07;;;;;;;10.93;5.10;;;23.70;50.10;;;;;;4973969;28;20190;-79
2021/03/30 10:41:36;;;;;;;10.57;5.83;;;23.50;48.80;;;;;;4976042;28;20344;-80
2021/03/30 10:44:02;;;;;;;6.53;4.50;;;24.10;48.30;;;;;;4974338;28;20488;-79
2021/03/30 10:46:28;;;;;;;13.90;4.30;;;24.80;51.20;;;;;;4977996;28;20465;-80
2021/03/30 10:48:58;;;;;;;7.00;4.03;;;24.90;47.80;;;;;;4975891;28;20432;-78
2021/03/30 10:51:24;;;;;;;8.60;5.07;;;25.20;46.80;;;;;;4979760;28;20188;-79
2021/03/30 10:53:49;;;;;;;10.00;4.97;;;25.20;49.10;;;;;;4974519;28;20528;-81
2021/03/30 10:56:15;;;;;;;5.17;4.33;;;25.50;48.30;;;;;;4978574;28;20186;-79
2021/03/30 10:58:40;;;;;;;6.67;4.00;;;25.30;47.40;;;;;;4997847;28;20676;-79
2021/03/30 11:01:06;;;;;;;11.23;4.27;;;25.00;49.20;;;;;;5001765;28;20181;-79
2021/03/30 11:03:31;;;;;;;4.70;4.00;;;24.20;49.10;;;;;;4982290;28;20213;-79
2021/03/30 11:05:57;;;;;;;8.90;3.97;;;23.60;47.90;;;;;;4983562;28;20208;-79
2021/03/30 11:08:22;;;;;;;8.60;3.80;;;23.80;50.70;;;;;;4980549;28;20324;-80
2021/03/30 11:10:48;;;;;;;6.67;3.97;;;24.20;47.30;;;;;;4986648;28;20692;-82
2021/03/30 11:13:13;;;;;;;8.50;4.13;;;24.30;48.70;;;;;;4975654;28;20178;-78
2021/03/30 11:15:39;;;;;;;6.87;4.10;;;23.00;50.30;;;;;;4974921;28;20186;-78
2021/03/30 11:18:04;;;;;;;5.93;3.87;;;23.20;52.80;;;;;;4974544;28;20202;-79
2021/03/30 11:20:30;;;;;;;6.83;3.97;;;23.60;49.20;;;;;;4976681;28;20216;-79
2021/03/30 11:22:56;;;;;;;5.83;4.10;;;23.80;52.30;;;;;;4977429;28;20182;-79
2021/03/30 11:25:23;;;;;;;5.27;3.97;;;23.50;49.60;;;;;;4974458;28;20186;-79
2021/03/30 11:27:51;;;;;;;9.63;3.90;;;23.70;52.00;;;;;;4975006;28;21089;-79
2021/03/30 11:30:23;;;;;;;5.93;3.30;;;23.80;46.80;;;;;;4974086;28;20773;-78
2021/03/30 11:32:57;;;;;;;3.37;2.90;;;23.50;47.50;;;;;;4971973;28;20451;-79
2021/03/30 11:35:33;;;;;;;6.57;3.50;;;22.90;47.50;;;;;;4972102;28;20529;-79
2021/03/30 11:38:05;;;;;;;3.80;2.80;;;23.10;45.60;;;;;;4972613;28;20429;-79
2021/03/30 11:40:31;;;;;;;3.07;2.77;;;23.10;47.70;;;;;;4973622;28;20418;-79
2021/03/30 11:42:57;;;;;;;5.90;3.20;;;22.70;48.20;;;;;;4971893;28;20480;-79
2021/03/30 11:45:22;;;;;;;4.00;3.50;;;22.70;45.60;;;;;;4973075;28;20281;-78
2021/03/30 11:47:48;;;;;;;5.70;3.67;;;22.50;53.00;;;;;;4972569;28;20210;-79
2021/03/30 11:50:14;;;;;;;6.60;4.10;;;23.00;48.90;;;;;;4973152;28;20186;-79
2021/03/30 11:52:40;;;;;;;6.70;4.10;;;22.80;47.00;;;;;;4973024;28;20268;-79
2021/03/30 11:55:06;;;;;;;7.80;4.63;;;22.90;48.00;;;;;;4973417;28;20545;-78
2021/03/30 11:57:32;;;;;;;8.20;4.57;;;22.70;46.40;;;;;;4972336;28;20681;-79
2021/03/30 11:59:57;;;;;;;14.43;4.87;;;22.80;51.70;;;;;;4972880;28;20420;-79
2021/03/30 12:02:23;;;;;;;7.37;4.17;;;23.20;47.10;;;;;;4982180;28;20217;-78
2021/03/30 12:04:49;;;;;;;13.30;4.20;;;22.80;49.30;;;;;;4976810;28;20621;-78
2021/03/30 12:07:14;;;;;;;6.40;4.50;;;22.80;48.00;;;;;;4976337;28;20708;-79
2021/03/30 12:09:40;;;;;;;8.63;4.97;;;23.10;54.90;;;;;;4977004;28;20638;-79
2021/03/30 12:12:06;;;;;;;21.43;4.07;;;22.90;46.50;;;;;;4990105;28;20177;-79
2021/03/30 12:14:31;;;;;;;12.20;3.23;;;22.90;50.10;;;;;;4992743;28;20590;-78
2021/03/30 12:16:57;;;;;;;5.13;3.27;;;23.20;53.10;;;;;;4986504;28;20178;-81
2021/03/30 12:19:23;;;;;;;6.20;3.20;;;23.80;52.30;;;;;;4976827;28;20642;-79
2021/03/30 12:21:48;;;;;;;7.20;2.80;;;24.10;49.70;;;;;;4976996;28;20221;-79
2021/03/30 12:24:14;;;;;;;6.33;3.40;;;24.10;45.80;;;;;;4974661;28;20206;-79
2021/03/30 12:26:40;;;;;;;8.43;4.00;;;23.50;51.40;;;;;;4967082;28;20696;-79
2021/03/30 12:29:05;;;;;;;4.00;3.27;;;23.20;52.20;;;;;;4987182;28;20190;-79
2021/03/30 12:31:32;;;;;;;4.53;3.00;;;23.50;52.70;;;;;;4970287;28;20254;-79
2021/03/30 12:33:58;;;;;;;4.63;2.60;;;23.50;45.50;;;;;;4970261;28;20199;-79
2021/03/30 12:36:24;;;;;;;6.90;3.00;;;23.40;47.70;;;;;;4967273;28;20429;-79
2021/03/30 12:38:49;;;;;;;3.30;3.00;;;23.20;45.80;;;;;;4974811;28;20429;-78
2021/03/30 12:41:15;;;;;;;6.17;3.10;;;23.20;47.60;;;;;;4974861;28;20186;-79
2021/03/30 12:43:41;;;;;;;5.87;2.83;;;23.40;43.90;;;;;;4976222;28;20292;-79
2021/03/30 12:46:06;;;;;;;5.67;3.27;;;23.80;46.70;;;;;;4975601;28;20194;-79
2021/03/30 12:48:32;;;;;;;4.03;2.90;;;23.50;48.30;;;;;;4974773;28;20186;-79
2021/03/30 12:50:57;;;;;;;7.07;2.70;;;23.30;51.30;;;;;;4975588;28;20186;-78
2021/03/30 12:53:23;;;;;;;4.77;3.50;;;22.90;45.20;;;;;;4975763;28;20204;-79
2021/03/30 12:55:49;;;;;;;7.37;3.30;;;23.00;51.20;;;;;;4977364;28;20197;-79
2021/03/30 12:58:14;;;;;;;5.10;2.87;;;23.10;51.20;;;;;;4975051;28;20182;-79
2021/03/30 13:00:40;;;;;;;4.70;2.93;;;23.40;48.50;;;;;;4976914;28;20193;-79
2021/03/30 13:03:05;;;;;;;8.70;2.90;;;23.40;49.40;;;;;;4976039;28;20196;-78
2021/03/30 13:05:31;;;;;;;3.80;2.60;;;23.60;52.00;;;;;;4981197;28;20189;-78
2021/03/30 13:07:57;;;;;;;3.83;2.70;;;23.90;50.60;;;;;;4975563;28;20167;-77
2021/03/30 13:10:22;;;;;;;4.63;2.87;;;23.70;50.20;;;;;;4975755;28;20174;-77
2021/03/30 13:12:48;;;;;;;5.80;2.90;;;23.50;46.90;;;;;;4974792;28;20208;-77
2021/03/30 13:15:14;;;;;;;3.20;2.30;;;23.30;46.30;;;;;;4974760;28;20209;-76
2021/03/30 13:17:39;;;;;;;3.40;1.90;;;23.20;47.70;;;;;;4975238;28;20213;-77
2021/03/30 13:20:06;;;;;;;5.73;2.40;;;23.20;44.50;;;;;;4975738;28;20174;-77
2021/03/30 13:22:31;;;;;;;5.83;2.90;;;23.20;45.30;;;;;;4975788;28;20519;-76
2021/03/30 13:25:00;;;;;;;3.80;3.20;;;23.60;50.40;;;;;;4975478;28;20445;-77
2021/03/30 13:27:26;;;;;;;7.10;2.90;;;23.60;47.10;;;;;;4973959;28;20568;-77
2021/03/30 13:29:51;;;;;;;7.23;3.00;;;23.90;45.80;;;;;;4975038;28;20410;-76
2021/03/30 13:32:18;;;;;;;4.43;2.60;;;23.70;49.10;;;;;;4975186;28;20537;-76
2021/03/30 13:34:46;;;;;;;5.10;2.60;;;23.50;47.10;;;;;;4975389;28;20194;-76
2021/03/30 13:37:13;;;;;;;3.90;2.60;;;23.90;48.70;;;;;;4974753;28;20540;-77
2021/03/30 13:39:39;;;;;;;7.10;2.67;;;23.90;48.90;;;;;;4975369;28;20424;-77
2021/03/30 13:42:06;;;;;;;6.33;3.00;;;23.70;48.60;;;;;;4975151;28;20409;-76
2021/03/30 13:44:32;;;;;;;4.30;2.53;;;23.60;46.10;;;;;;4975183;28;20269;-77
2021/03/30 13:47:00;;;;;;;3.40;2.50;;;23.40;47.40;;;;;;4974910;28;21016;-76
2021/03/30 13:49:27;;;;;;;5.70;3.60;;;23.60;46.50;;;;;;4975144;28;20170;-76
2021/03/30 13:51:54;;;;;;;4.17;3.03;;;23.20;45.50;;;;;;4975352;28;20409;-76
2021/03/30 13:54:20;;;;;;;5.73;3.50;;;22.90;51.90;;;;;;4975055;28;20453;-76
2021/03/30 13:56:45;;;;;;;6.93;3.70;;;22.90;47.50;;;;;;4975357;28;20441;-76
2021/03/30 13:59:12;;;;;;;4.00;2.77;;;22.80;48.90;;;;;;4974377;28;20454;-76
2021/03/30 14:01:39;;;;;;;3.50;2.90;;;22.80;51.00;;;;;;4974582;28;20170;-77
2021/03/30 14:04:05;;;;;;;6.33;2.33;;;23.20;49.30;;;;;;4975135;28;20433;-76
2021/03/30 14:06:31;;;;;;;5.67;2.50;;;23.30;47.90;;;;;;4976782;28;20536;-77
2021/03/30 14:08:56;;;;;;;8.43;2.30;;;23.40;47.60;;;;;;4972901;28;20905;-77
2021/03/30 14:11:32;;;;;;;3.90;3.07;;;23.70;48.50;;;;;;4973263;28;20831;-76
2021/03/30 14:14:00;;;;;;;5.80;3.43;;;23.30;52.00;;;;;;4976529;28;20220;-78
2021/03/30 14:16:43;;;;;;;5.20;2.83;;;23.10;49.40;;;;;;4975153;28;20921;-77
2021/03/30 14:19:20;;;;;;;4.50;2.80;;;23.30;48.00;;;;;;4974062;28;20409;-76
2021/03/30 14:24:20;;;;;;;4.03;3.30;;;23.30;52.30;;;;;;4974086;28;20456;-77
2021/03/30 14:26:46;;;;;;;11.53;2.90;;;23.40;48.10;;;;;;4973015;28;20536;-76
2021/03/30 14:29:12;;;;;;;10.50;3.60;;;23.30;52.40;;;;;;4973237;28;20508;-77
2021/03/30 14:31:38;;;;;;;6.90;3.37;;;23.00;53.50;;;;;;4974174;28;20209;-77
2021/03/30 14:34:03;;;;;;;6.30;3.50;;;22.90;53.20;;;;;;4989301;23;20492;-81
2021/03/30 14:36:30;;;;;;;7.43;3.60;;;22.70;49.60;;;;;;4965639;28;20572;-83
2021/03/30 14:38:59;;;;;;;4.80;3.60;;;22.70;53.10;;;;;;4975137;28;20189;-82
2021/03/30 14:41:25;;;;;;;4.73;4.23;;;22.60;52.90;;;;;;4976959;28;20420;-81
2021/03/30 14:47:00;;;;;;;3.50;3.20;;;22.50;54.90;;;;;;4957980;29;20454;-83
2021/03/30 14:52:12;;;;;;;8.57;4.03;;;22.60;49.20;;;;;;4936346;29;20447;-82
2021/03/30 14:55:33;;;;;;;6.50;3.67;;;22.30;50.90;;;;;;4941319;29;20478;-82
2021/03/30 14:57:36;;;;;;;5.23;3.63;;;21.90;51.00;;;;;;4927429;29;20447;-82
2021/03/30 15:00:06;;;;;;;6.23;4.27;;;22.00;50.40;;;;;;4938702;29;20884;-82
2021/03/30 15:02:41;;;;;;;6.20;3.30;;;22.30;50.30;;;;;;4937691;29;20461;-82
2021/03/30 15:05:08;;;;;;;4.90;3.70;;;22.20;53.20;;;;;;4940631;29;20466;-81
2021/03/30 15:07:34;;;;;;;5.33;3.87;;;21.90;52.00;;;;;;4939499;29;20459;-81
2021/03/30 15:10:01;;;;;;;6.37;3.40;;;22.20;50.00;;;;;;4941353;29;20976;-82
2021/03/30 15:12:26;;;;;;;5.00;3.80;;;22.20;53.90;;;;;;4940434;29;20199;-81
2021/03/30 15:14:52;;;;;;;3.67;2.83;;;21.80;51.50;;;;;;4957418;28;20454;-81
2021/03/30 15:17:17;;;;;;;7.30;3.10;;;21.90;54.70;;;;;;4956109;29;20175;-81
2021/03/30 15:19:43;;;;;;;5.20;3.70;;;22.10;49.60;;;;;;4939896;29;20195;-81
2021/03/30 15:22:09;;;;;;;5.20;2.90;;;22.30;48.10;;;;;;4957203;29;20260;-79
2021/03/30 15:24:36;;;;;;;5.10;3.33;;;22.20;48.80;;;;;;4956682;28;20230;-80
2021/03/30 15:27:02;;;;;;;5.23;3.70;;;22.30;49.80;;;;;;4955437;29;20206;-82
2021/03/30 15:29:28;;;;;;;4.10;3.00;;;22.00;47.70;;;;;;4953589;29;20463;-82
2021/03/30 15:31:54;;;;;;;7.50;3.50;;;21.50;50.00;;;;;;4938778;29;20860;-82
2021/03/30 15:34:19;;;;;;;6.70;3.17;;;21.50;49.80;;;;;;4948136;28;20315;-81
2021/03/30 15:36:45;;;;;;;6.03;3.60;;;21.60;50.10;;;;;;4936534;29;20187;-81
2021/03/30 15:39:11;;;;;;;5.30;3.60;;;21.50;49.90;;;;;;4919180;29;20682;-81
2021/03/30 15:41:37;;;;;;;4.70;3.67;;;21.20;51.50;;;;;;4936712;29;20190;-81
2021/03/30 15:49:06;;;;;;;5.20;3.23;;;21.30;51.40;;;;;;4959409;28;20427;-86
2021/03/30 15:51:31;;;;;;;7.40;3.50;;;21.30;50.60;;;;;;4960067;28;20175;-85
2021/03/30 15:53:58;;;;;;;4.53;3.90;;;21.40;51.30;;;;;;4943563;29;20199;-85
2021/03/30 15:56:24;;;;;;;6.90;3.80;;;21.50;48.30;;;;;;4948984;29;20156;-85
2021/03/30 15:58:49;;;;;;;10.93;3.97;;;21.40;51.50;;;;;;4958149;29;20435;-82
2021/03/30 16:01:15;;;;;;;24.60;4.90;;;21.10;47.20;;;;;;4962067;28;20639;-83
2021/03/30 16:03:40;;;;;;;10.17;4.80;;;21.10;49.00;;;;;;4962814;28;20202;-83
2021/03/30 16:06:06;;;;;;;6.10;3.83;;;21.30;49.40;;;;;;4962042;29;20201;-82
2021/03/30 16:08:34;;;;;;;8.27;4.97;;;20.90;52.50;;;;;;4957651;29;20175;-82
2021/03/30 16:11:00;;;;;;;5.70;4.50;;;20.50;55.40;;;;;;4928746;29;20289;-83
2021/03/30 16:13:26;;;;;;;13.17;5.70;;;20.30;54.70;;;;;;4954331;28;20842;-83
2021/03/30 16:15:51;;;;;;;17.90;6.57;;;20.10;54.80;;;;;;4931794;29;20261;-83
2021/03/30 16:18:17;;;;;;;8.37;4.13;;;20.00;57.10;;;;;;4956909;29;20203;-83
2021/03/30 16:20:43;;;;;;;10.47;5.30;;;19.90;60.00;;;;;;4956973;28;20643;-84
2021/03/30 16:23:08;;;;;;;14.80;5.03;;;19.80;59.80;;;;;;4957412;28;20183;-80
2021/03/30 16:25:34;;;;;;;4.43;3.50;;;19.70;63.30;;;;;;4939625;29;20230;-82
2021/03/30 16:28:00;;;;;;;8.70;4.93;;;19.60;62.70;;;;;;4957010;29;20206;-83
2021/03/30 16:30:25;;;;;;;12.33;4.83;;;19.40;61.70;;;;;;4938978;29;20175;-81
2021/03/30 16:32:51;;;;;;;5.87;3.80;;;19.20;61.40;;;;;;4975052;28;20286;-82
2021/03/30 16:35:17;;;;;;;7.13;4.50;;;19.00;62.80;;;;;;4971743;28;20364;-81
2021/03/30 16:37:42;;;;;;;6.60;4.53;;;18.90;66.40;;;;;;4954955;28;20670;-82
2021/03/30 16:40:09;;;;;;;5.60;4.47;;;18.80;64.40;;;;;;4956320;28;20630;-83
2021/03/30 16:42:35;;;;;;;8.73;4.13;;;18.70;66.60;;;;;;4956838;28;20183;-82
2021/03/30 16:45:00;;;;;;;12.83;4.60;;;18.30;64.50;;;;;;4981201;28;20504;-83
2021/03/30 16:47:26;;;;;;;11.50;4.63;;;17.90;65.10;;;;;;4954279;28;20202;-82
2021/03/30 16:49:54;;;;;;;8.03;4.47;;;17.60;64.70;;;;;;4958537;28;20202;-82
2021/03/30 16:52:20;;;;;;;9.53;5.00;;;17.20;64.40;;;;;;4956653;28;20426;-82
2021/03/30 16:54:46;;;;;;;6.17;4.70;;;17.00;65.00;;;;;;4959181;28;20501;-82
2021/03/30 16:57:11;;;;;;;11.53;4.17;;;16.70;62.50;;;;;;4959220;28;20662;-82
2021/03/30 16:59:37;;;;;;;14.40;4.33;;;16.40;65.50;;;;;;4941468;29;20670;-83
2021/03/30 17:02:04;;;;;;;5.93;3.40;;;16.00;66.00;;;;;;4943391;29;20207;-82
2021/03/30 17:04:30;;;;;;;7.20;3.77;;;15.70;66.50;;;;;;4948343;28;20198;-82
2021/03/30 17:06:55;;;;;;;4.70;3.80;;;15.50;67.10;;;;;;4958015;28;20528;-81
2021/03/30 17:09:21;;;;;;;11.57;3.20;;;15.30;67.40;;;;;;4957671;29;20171;-82